Terminal Aerodrome Forecast
Issued by NWS

Home | Current Version | Previous Version | Text Only | Print | Product List | Glossary On
Versions: 1 2 3 4 5 6 7 8 9 10 11 12 13
180
FTUS46 KSEW 111720
TAFPAE
TAF
KPAE 111720Z 1118/1218 12007KT P6SM VCFG SKC
     FM112000 15007KT P6SM SKC
     FM121000 15005KT P6SM BKN080=

USA.gov is the U.S. government's official web portal to all federal, state and local government web resources and services.